sensor_id;sensor_type;location;lat;lon;timestamp;P1;durP1;ratioP1;P2;durP2;ratioP2
4692;SDS011;11710;48.024;16.296;2022-12-18T07:03:11;47.38;;;25.27;;
4692;SDS011;11710;48.024;16.296;2022-12-18T07:05:39;44.90;;;24.35;;
4692;SDS011;11710;48.024;16.296;2022-12-18T07:08:07;52.75;;;27.30;;
4692;SDS011;11710;48.024;16.296;2022-12-18T07:10:39;50.05;;;25.13;;
4692;SDS011;11710;48.024;16.296;2022-12-18T07:13:07;43.40;;;25.50;;
4692;SDS011;11710;48.024;16.296;2022-12-18T07:15:34;45.90;;;23.77;;
4692;SDS011;11710;48.024;16.296;2022-12-18T07:18:01;38.22;;;21.67;;
4692;SDS011;11710;48.024;16.296;2022-12-18T07:20:30;34.35;;;21.52;;
4692;SDS011;11710;48.024;16.296;2022-12-18T07:22:57;33.30;;;19.45;;
4692;SDS011;11710;48.024;16.296;2022-12-18T07:25:24;34.67;;;20.45;;
4692;SDS011;11710;48.024;16.296;2022-12-18T07:27:51;38.00;;;21.65;;
4692;SDS011;11710;48.024;16.296;2022-12-18T07:30:18;35.10;;;20.98;;
4692;SDS011;11710;48.024;16.296;2022-12-18T07:32:45;32.85;;;21.58;;
4692;SDS011;11710;48.024;16.296;2022-12-18T07:35:13;42.92;;;22.45;;
4692;SDS011;11710;48.024;16.296;2022-12-18T07:37:42;41.25;;;23.55;;
4692;SDS011;11710;48.024;16.296;2022-12-18T07:40:09;37.97;;;22.58;;
4692;SDS011;11710;48.024;16.296;2022-12-18T07:42:37;41.80;;;25.88;;
4692;SDS011;11710;48.024;16.296;2022-12-18T07:45:05;41.78;;;25.73;;
4692;SDS011;11710;48.024;16.296;2022-12-18T07:47:34;40.20;;;26.55;;
4692;SDS011;11710;48.024;16.296;2022-12-18T07:50:02;38.28;;;25.40;;
4692;SDS011;11710;48.024;16.296;2022-12-18T07:52:30;31.52;;;22.67;;
4692;SDS011;11710;48.024;16.296;2022-12-18T07:54:58;30.90;;;21.63;;
4692;SDS011;11710;48.024;16.296;2022-12-18T07:57:25;33.42;;;23.58;;
4692;SDS011;11710;48.024;16.296;2022-12-18T07:59:53;29.48;;;22.00;;
4692;SDS011;11710;48.024;16.296;2022-12-18T08:02:20;28.88;;;22.40;;
4692;SDS011;11710;48.024;16.296;2022-12-18T08:04:47;31.77;;;23.40;;
4692;SDS011;11710;48.024;16.296;2022-12-18T08:07:14;33.63;;;22.90;;
4692;SDS011;11710;48.024;16.296;2022-12-18T08:09:41;34.13;;;25.58;;
4692;SDS011;11710;48.024;16.296;2022-12-18T08:12:09;39.42;;;26.95;;
4692;SDS011;11710;48.024;16.296;2022-12-18T08:14:36;37.00;;;27.50;;
4692;SDS011;11710;48.024;16.296;2022-12-18T08:17:03;38.83;;;27.80;;
4692;SDS011;11710;48.024;16.296;2022-12-18T08:19:30;31.33;;;24.03;;
4692;SDS011;11710;48.024;16.296;2022-12-18T08:21:57;36.03;;;24.00;;
4692;SDS011;11710;48.024;16.296;2022-12-18T08:24:24;33.58;;;22.70;;
4692;SDS011;11710;48.024;16.296;2022-12-18T08:26:51;26.40;;;20.08;;
4692;SDS011;11710;48.024;16.296;2022-12-18T08:29:20;23.17;;;19.10;;
4692;SDS011;11710;48.024;16.296;2022-12-18T08:31:47;22.85;;;18.85;;
4692;SDS011;11710;48.024;16.296;2022-12-18T08:34:14;26.30;;;19.02;;
4692;SDS011;11710;48.024;16.296;2022-12-18T08:36:41;27.80;;;20.17;;
4692;SDS011;11710;48.024;16.296;2022-12-18T08:39:08;29.25;;;20.67;;
4692;SDS011;11710;48.024;16.296;2022-12-18T08:41:36;28.20;;;20.65;;
4692;SDS011;11710;48.024;16.296;2022-12-18T08:44:03;29.05;;;20.60;;
4692;SDS011;11710;48.024;16.296;2022-12-18T08:46:49;28.37;;;21.20;;
4692;SDS011;11710;48.024;16.296;2022-12-18T08:49:16;30.60;;;21.10;;
4692;SDS011;11710;48.024;16.296;2022-12-18T08:51:44;29.35;;;20.95;;
4692;SDS011;11710;48.024;16.296;2022-12-18T08:54:11;26.67;;;19.90;;
4692;SDS011;11710;48.024;16.296;2022-12-18T08:56:39;28.75;;;20.35;;
4692;SDS011;11710;48.024;16.296;2022-12-18T08:59:06;25.87;;;19.83;;
4692;SDS011;11710;48.024;16.296;2022-12-18T09:01:33;25.63;;;18.75;;
4692;SDS011;11710;48.024;16.296;2022-12-18T09:04:01;26.55;;;18.50;;
4692;SDS011;11710;48.024;16.296;2022-12-18T09:06:28;25.88;;;20.35;;
4692;SDS011;11710;48.024;16.296;2022-12-18T09:08:56;28.17;;;20.73;;
4692;SDS011;11710;48.024;16.296;2022-12-18T09:11:25;24.00;;;17.83;;
4692;SDS011;11710;48.024;16.296;2022-12-18T09:13:54;24.73;;;18.02;;
4692;SDS011;11710;48.024;16.296;2022-12-18T09:16:22;24.02;;;18.33;;
4692;SDS011;11710;48.024;16.296;2022-12-18T09:18:50;26.15;;;19.27;;
4692;SDS011;11710;48.024;16.296;2022-12-18T09:21:20;29.65;;;18.33;;
4692;SDS011;11710;48.024;16.296;2022-12-18T09:23:48;28.38;;;19.67;;
4692;SDS011;11710;48.024;16.296;2022-12-18T09:26:16;27.13;;;19.60;;
4692;SDS011;11710;48.024;16.296;2022-12-18T09:28:43;28.50;;;20.30;;
4692;SDS011;11710;48.024;16.296;2022-12-18T09:31:11;27.08;;;19.45;;
4692;SDS011;11710;48.024;16.296;2022-12-18T09:33:43;25.23;;;19.43;;
4692;SDS011;11710;48.024;16.296;2022-12-18T09:36:11;33.42;;;21.65;;
4692;SDS011;11710;48.024;16.296;2022-12-18T09:38:42;27.77;;;18.88;;
4692;SDS011;11710;48.024;16.296;2022-12-18T09:41:15;33.70;;;22.23;;
4692;SDS011;11710;48.024;16.296;2022-12-18T09:43:50;34.00;;;20.77;;
4692;SDS011;11710;48.024;16.296;2022-12-18T09:46:24;29.20;;;19.52;;
4692;SDS011;11710;48.024;16.296;2022-12-18T09:48:54;28.23;;;18.67;;
4692;SDS011;11710;48.024;16.296;2022-12-18T09:51:25;32.17;;;19.10;;
4692;SDS011;11710;48.024;16.296;2022-12-18T09:53:58;31.52;;;18.73;;
4692;SDS011;11710;48.024;16.296;2022-12-18T09:56:31;28.52;;;18.38;;
4692;SDS011;11710;48.024;16.296;2022-12-18T09:59:04;33.10;;;19.08;;
4692;SDS011;11710;48.024;16.296;2022-12-18T10:01:33;36.42;;;19.65;;
4692;SDS011;11710;48.024;16.296;2022-12-18T10:04:00;31.10;;;17.80;;
4692;SDS011;11710;48.024;16.296;2022-12-18T10:06:29;29.60;;;19.40;;
4692;SDS011;11710;48.024;16.296;2022-12-18T10:09:05;28.95;;;17.58;;
4692;SDS011;11710;48.024;16.296;2022-12-18T10:11:39;28.58;;;15.90;;
4692;SDS011;11710;48.024;16.296;2022-12-18T10:14:14;27.30;;;16.40;;
4692;SDS011;11710;48.024;16.296;2022-12-18T10:16:52;33.92;;;18.40;;
4692;SDS011;11710;48.024;16.296;2022-12-18T10:19:35;29.20;;;16.27;;
4692;SDS011;11710;48.024;16.296;2022-12-18T10:22:17;31.70;;;17.10;;
4692;SDS011;11710;48.024;16.296;2022-12-18T10:24:55;34.40;;;16.65;;
4692;SDS011;11710;48.024;16.296;2022-12-18T10:27:29;33.10;;;16.83;;
4692;SDS011;11710;48.024;16.296;2022-12-18T10:29:58;31.55;;;16.63;;
4692;SDS011;11710;48.024;16.296;2022-12-18T10:32:26;31.45;;;15.85;;
4692;SDS011;11710;48.024;16.296;2022-12-18T10:34:57;44.53;;;19.52;;
4692;SDS011;11710;48.024;16.296;2022-12-18T10:37:25;33.42;;;16.48;;
4692;SDS011;11710;48.024;16.296;2022-12-18T10:40:07;37.15;;;18.70;;
4692;SDS011;11710;48.024;16.296;2022-12-18T10:42:37;35.50;;;18.13;;
4692;SDS011;11710;48.024;16.296;2022-12-18T10:45:08;36.03;;;18.77;;
4692;SDS011;11710;48.024;16.296;2022-12-18T10:47:37;34.15;;;17.02;;
4692;SDS011;11710;48.024;16.296;2022-12-18T10:50:17;32.58;;;17.67;;
4692;SDS011;11710;48.024;16.296;2022-12-18T10:52:55;38.13;;;19.50;;
4692;SDS011;11710;48.024;16.296;2022-12-18T10:55:26;36.53;;;16.70;;
4692;SDS011;11710;48.024;16.296;2022-12-18T10:58:02;38.33;;;17.80;;
4692;SDS011;11710;48.024;16.296;2022-12-18T11:00:45;39.10;;;18.77;;
4692;SDS011;11710;48.024;16.296;2022-12-18T11:03:30;36.00;;;18.67;;
4692;SDS011;11710;48.024;16.296;2022-12-18T11:06:02;38.67;;;19.80;;
4692;SDS011;11710;48.024;16.296;2022-12-18T11:08:31;39.33;;;19.15;;
4692;SDS011;11710;48.024;16.296;2022-12-18T11:11:00;35.17;;;19.77;;
4692;SDS011;11710;48.024;16.296;2022-12-18T11:13:28;39.13;;;19.33;;
4692;SDS011;11710;48.024;16.296;2022-12-18T11:15:57;43.53;;;20.35;;
4692;SDS011;11710;48.024;16.296;2022-12-18T11:18:25;40.83;;;20.40;;
4692;SDS011;11710;48.024;16.296;2022-12-18T11:20:56;40.25;;;21.77;;
4692;SDS011;11710;48.024;16.296;2022-12-18T11:23:25;38.08;;;19.80;;
4692;SDS011;11710;48.024;16.296;2022-12-18T11:25:54;39.55;;;19.05;;
4692;SDS011;11710;48.024;16.296;2022-12-18T11:28:37;41.45;;;21.30;;
4692;SDS011;11710;48.024;16.296;2022-12-18T11:31:17;35.80;;;19.40;;
4692;SDS011;11710;48.024;16.296;2022-12-18T11:33:52;43.95;;;21.05;;
4692;SDS011;11710;48.024;16.296;2022-12-18T11:36:23;44.35;;;20.58;;
4692;SDS011;11710;48.024;16.296;2022-12-18T11:38:52;44.15;;;21.75;;
4692;SDS011;11710;48.024;16.296;2022-12-18T11:41:23;40.13;;;21.80;;
4692;SDS011;11710;48.024;16.296;2022-12-18T11:44:15;47.90;;;22.75;;
4692;SDS011;11710;48.024;16.296;2022-12-18T11:46:50;43.83;;;24.42;;
4692;SDS011;11710;48.024;16.296;2022-12-18T11:49:22;42.20;;;24.55;;
4692;SDS011;11710;48.024;16.296;2022-12-18T11:51:54;45.03;;;22.75;;
4692;SDS011;11710;48.024;16.296;2022-12-18T11:54:29;42.90;;;20.95;;
4692;SDS011;11710;48.024;16.296;2022-12-18T11:57:05;41.55;;;21.95;;
4692;SDS011;11710;48.024;16.296;2022-12-18T11:59:37;42.92;;;20.92;;
4692;SDS011;11710;48.024;16.296;2022-12-18T12:02:22;40.97;;;21.10;;
4692;SDS011;11710;48.024;16.296;2022-12-18T12:05:25;44.05;;;23.35;;
4692;SDS011;11710;48.024;16.296;2022-12-18T12:08:10;48.53;;;21.70;;
4692;SDS011;11710;48.024;16.296;2022-12-18T12:10:48;38.90;;;21.50;;
4692;SDS011;11710;48.024;16.296;2022-12-18T12:13:29;42.53;;;21.80;;
4692;SDS011;11710;48.024;16.296;2022-12-18T12:16:08;40.20;;;20.98;;
4692;SDS011;11710;48.024;16.296;2022-12-18T12:18:45;42.70;;;21.30;;
4692;SDS011;11710;48.024;16.296;2022-12-18T12:21:22;46.50;;;23.10;;
4692;SDS011;11710;48.024;16.296;2022-12-18T12:23:56;45.50;;;23.27;;
4692;SDS011;11710;48.024;16.296;2022-12-18T12:26:36;50.80;;;24.25;;
4692;SDS011;11710;48.024;16.296;2022-12-18T12:29:21;51.45;;;24.52;;
4692;SDS011;11710;48.024;16.296;2022-12-18T12:32:05;46.03;;;23.45;;
4692;SDS011;11710;48.024;16.296;2022-12-18T12:34:41;46.70;;;24.75;;
4692;SDS011;11710;48.024;16.296;2022-12-18T12:37:19;50.60;;;23.27;;
4692;SDS011;11710;48.024;16.296;2022-12-18T12:39:58;49.35;;;25.67;;
4692;SDS011;11710;48.024;16.296;2022-12-18T12:42:32;46.88;;;24.42;;
4692;SDS011;11710;48.024;16.296;2022-12-18T12:45:26;49.03;;;24.83;;
4692;SDS011;11710;48.024;16.296;2022-12-18T12:47:57;45.38;;;25.30;;
4692;SDS011;11710;48.024;16.296;2022-12-18T12:50:26;43.33;;;22.88;;
4692;SDS011;11710;48.024;16.296;2022-12-18T12:52:54;43.85;;;22.35;;
4692;SDS011;11710;48.024;16.296;2022-12-18T12:55:24;51.97;;;23.92;;
4692;SDS011;11710;48.024;16.296;2022-12-18T12:57:55;46.13;;;24.02;;
4692;SDS011;11710;48.024;16.296;2022-12-18T13:00:31;48.15;;;26.10;;
4692;SDS011;11710;48.024;16.296;2022-12-18T13:03:08;45.13;;;23.77;;
4692;SDS011;11710;48.024;16.296;2022-12-18T13:05:44;53.22;;;24.92;;
4692;SDS011;11710;48.024;16.296;2022-12-18T13:08:22;45.17;;;22.35;;
4692;SDS011;11710;48.024;16.296;2022-12-18T13:10:52;53.63;;;24.20;;
4692;SDS011;11710;48.024;16.296;2022-12-18T13:13:47;43.95;;;23.13;;
4692;SDS011;11710;48.024;16.296;2022-12-18T13:16:19;46.72;;;23.75;;
4692;SDS011;11710;48.024;16.296;2022-12-18T13:18:48;47.17;;;23.33;;
4692;SDS011;11710;48.024;16.296;2022-12-18T13:21:19;46.55;;;22.83;;
4692;SDS011;11710;48.024;16.296;2022-12-18T13:23:49;46.35;;;23.30;;
4692;SDS011;11710;48.024;16.296;2022-12-18T13:26:30;52.90;;;24.17;;
4692;SDS011;11710;48.024;16.296;2022-12-18T13:28:59;52.85;;;24.80;;
4692;SDS011;11710;48.024;16.296;2022-12-18T13:34:36;58.63;;;27.48;;
4692;SDS011;11710;48.024;16.296;2022-12-18T13:43:28;53.33;;;25.45;;
4692;SDS011;11710;48.024;16.296;2022-12-18T13:46:17;48.30;;;23.38;;
4692;SDS011;11710;48.024;16.296;2022-12-18T13:48:50;44.75;;;21.65;;
4692;SDS011;11710;48.024;16.296;2022-12-18T13:51:23;52.67;;;25.85;;
4692;SDS011;11710;48.024;16.296;2022-12-18T13:53:53;59.47;;;24.25;;
4692;SDS011;11710;48.024;16.296;2022-12-18T13:56:24;45.10;;;22.60;;
4692;SDS011;11710;48.024;16.296;2022-12-18T14:01:43;55.38;;;26.70;;
4692;SDS011;11710;48.024;16.296;2022-12-18T14:04:12;52.60;;;25.40;;
4692;SDS011;11710;48.024;16.296;2022-12-18T14:06:48;51.28;;;24.30;;
4692;SDS011;11710;48.024;16.296;2022-12-18T14:09:19;49.10;;;25.15;;
4692;SDS011;11710;48.024;16.296;2022-12-18T14:11:49;48.97;;;24.60;;
4692;SDS011;11710;48.024;16.296;2022-12-18T14:14:18;47.95;;;24.50;;
4692;SDS011;11710;48.024;16.296;2022-12-18T14:16:46;52.13;;;25.15;;
4692;SDS011;11710;48.024;16.296;2022-12-18T14:19:14;51.10;;;25.38;;
4692;SDS011;11710;48.024;16.296;2022-12-18T14:21:48;57.53;;;24.67;;
4692;SDS011;11710;48.024;16.296;2022-12-18T14:24:18;48.95;;;23.58;;
4692;SDS011;11710;48.024;16.296;2022-12-18T14:26:46;46.90;;;24.60;;
4692;SDS011;11710;48.024;16.296;2022-12-18T14:29:19;55.65;;;24.00;;
4692;SDS011;11710;48.024;16.296;2022-12-18T14:32:04;50.10;;;24.17;;
4692;SDS011;11710;48.024;16.296;2022-12-18T14:34:37;53.72;;;26.48;;
4692;SDS011;11710;48.024;16.296;2022-12-18T14:37:07;49.50;;;23.50;;
4692;SDS011;11710;48.024;16.296;2022-12-18T14:39:36;43.20;;;22.42;;
4692;SDS011;11710;48.024;16.296;2022-12-18T14:42:03;51.47;;;24.80;;
4692;SDS011;11710;48.024;16.296;2022-12-18T14:44:31;53.83;;;25.48;;
4692;SDS011;11710;48.024;16.296;2022-12-18T14:46:58;49.65;;;23.00;;
4692;SDS011;11710;48.024;16.296;2022-12-18T14:49:26;49.08;;;24.48;;
4692;SDS011;11710;48.024;16.296;2022-12-18T14:51:57;49.70;;;23.45;;
4692;SDS011;11710;48.024;16.296;2022-12-18T14:54:31;48.25;;;21.85;;
4692;SDS011;11710;48.024;16.296;2022-12-18T14:57:01;50.55;;;24.50;;
4692;SDS011;11710;48.024;16.296;2022-12-18T14:59:30;48.60;;;25.50;;
4692;SDS011;11710;48.024;16.296;2022-12-18T15:02:00;59.50;;;27.02;;
4692;SDS011;11710;48.024;16.296;2022-12-18T15:04:31;54.22;;;25.25;;
4692;SDS011;11710;48.024;16.296;2022-12-18T15:07:07;49.63;;;23.70;;
4692;SDS011;11710;48.024;16.296;2022-12-18T15:09:40;52.75;;;24.92;;
4692;SDS011;11710;48.024;16.296;2022-12-18T15:12:28;61.20;;;24.67;;
4692;SDS011;11710;48.024;16.296;2022-12-18T15:15:01;47.28;;;24.23;;
4692;SDS011;11710;48.024;16.296;2022-12-18T15:17:29;48.25;;;24.35;;
4692;SDS011;11710;48.024;16.296;2022-12-18T15:19:59;53.00;;;25.98;;
4692;SDS011;11710;48.024;16.296;2022-12-18T15:22:28;62.13;;;29.35;;
4692;SDS011;11710;48.024;16.296;2022-12-18T15:24:58;50.60;;;25.27;;
4692;SDS011;11710;48.024;16.296;2022-12-18T15:27:27;56.20;;;26.48;;
4692;SDS011;11710;48.024;16.296;2022-12-18T15:32:46;60.60;;;26.80;;
4692;SDS011;11710;48.024;16.296;2022-12-18T15:35:16;60.70;;;28.23;;
4692;SDS011;11710;48.024;16.296;2022-12-18T15:37:45;56.25;;;27.73;;
4692;SDS011;11710;48.024;16.296;2022-12-18T15:40:14;56.60;;;25.23;;
4692;SDS011;11710;48.024;16.296;2022-12-18T15:42:43;55.88;;;26.20;;
4692;SDS011;11710;48.024;16.296;2022-12-18T15:45:28;48.17;;;21.20;;
4692;SDS011;11710;48.024;16.296;2022-12-18T15:47:55;57.65;;;25.58;;
4692;SDS011;11710;48.024;16.296;2022-12-18T15:50:22;51.58;;;25.23;;
4692;SDS011;11710;48.024;16.296;2022-12-18T15:52:50;49.50;;;24.27;;
4692;SDS011;11710;48.024;16.296;2022-12-18T15:55:22;55.80;;;22.75;;
4692;SDS011;11710;48.024;16.296;2022-12-18T15:58:08;51.00;;;23.20;;
4692;SDS011;11710;48.024;16.296;2022-12-18T16:00:36;53.65;;;26.70;;
4692;SDS011;11710;48.024;16.296;2022-12-18T16:03:05;53.92;;;25.67;;
4692;SDS011;11710;48.024;16.296;2022-12-18T16:05:32;57.55;;;27.02;;
4692;SDS011;11710;48.024;16.296;2022-12-18T16:07:59;65.68;;;27.25;;
4692;SDS011;11710;48.024;16.296;2022-12-18T16:10:28;51.00;;;25.80;;
4692;SDS011;11710;48.024;16.296;2022-12-18T16:12:56;56.45;;;29.20;;
4692;SDS011;11710;48.024;16.296;2022-12-18T16:15:23;53.40;;;24.67;;
4692;SDS011;11710;48.024;16.296;2022-12-18T16:17:51;56.42;;;26.70;;
4692;SDS011;11710;48.024;16.296;2022-12-18T16:20:19;75.78;;;27.60;;
4692;SDS011;11710;48.024;16.296;2022-12-18T16:22:47;59.40;;;29.42;;
4692;SDS011;11710;48.024;16.296;2022-12-18T16:25:17;62.88;;;29.65;;
4692;SDS011;11710;48.024;16.296;2022-12-18T16:27:51;55.75;;;26.85;;
4692;SDS011;11710;48.024;16.296;2022-12-18T16:30:21;63.67;;;29.50;;
4692;SDS011;11710;48.024;16.296;2022-12-18T16:32:50;62.83;;;28.73;;
4692;SDS011;11710;48.024;16.296;2022-12-18T16:35:18;60.40;;;28.10;;
4692;SDS011;11710;48.024;16.296;2022-12-18T16:37:45;53.88;;;26.85;;
4692;SDS011;11710;48.024;16.296;2022-12-18T16:40:13;51.45;;;26.63;;
4692;SDS011;11710;48.024;16.296;2022-12-18T16:42:41;52.67;;;25.90;;
4692;SDS011;11710;48.024;16.296;2022-12-18T16:45:13;55.90;;;27.90;;
4692;SDS011;11710;48.024;16.296;2022-12-18T16:47:42;52.35;;;25.30;;
4692;SDS011;11710;48.024;16.296;2022-12-18T16:50:09;51.03;;;26.25;;
4692;SDS011;11710;48.024;16.296;2022-12-18T16:52:37;49.00;;;25.17;;
4692;SDS011;11710;48.024;16.296;2022-12-18T16:55:04;45.20;;;24.52;;
4692;SDS011;11710;48.024;16.296;2022-12-18T16:57:32;47.10;;;23.60;;
4692;SDS011;11710;48.024;16.296;2022-12-18T16:59:59;44.67;;;23.63;;
4692;SDS011;11710;48.024;16.296;2022-12-18T17:02:27;41.30;;;24.25;;
4692;SDS011;11710;48.024;16.296;2022-12-18T17:04:55;49.63;;;24.10;;
4692;SDS011;11710;48.024;16.296;2022-12-18T17:07:23;49.58;;;23.80;;
4692;SDS011;11710;48.024;16.296;2022-12-18T17:09:52;47.00;;;23.13;;
4692;SDS011;11710;48.024;16.296;2022-12-18T17:12:19;45.97;;;24.20;;
4692;SDS011;11710;48.024;16.296;2022-12-18T17:14:46;43.55;;;22.67;;
4692;SDS011;11710;48.024;16.296;2022-12-18T17:17:13;45.83;;;24.02;;
4692;SDS011;11710;48.024;16.296;2022-12-18T17:19:42;52.53;;;24.52;;
4692;SDS011;11710;48.024;16.296;2022-12-18T17:22:09;50.58;;;23.00;;
4692;SDS011;11710;48.024;16.296;2022-12-18T17:24:36;38.08;;;21.75;;
4692;SDS011;11710;48.024;16.296;2022-12-18T17:27:03;40.88;;;22.20;;
4692;SDS011;11710;48.024;16.296;2022-12-18T17:29:31;36.97;;;18.88;;
4692;SDS011;11710;48.024;16.296;2022-12-18T17:31:58;34.13;;;18.67;;
4692;SDS011;11710;48.024;16.296;2022-12-18T17:34:25;34.08;;;17.50;;
4692;SDS011;11710;48.024;16.296;2022-12-18T17:36:54;34.63;;;17.23;;
4692;SDS011;11710;48.024;16.296;2022-12-18T17:39:21;32.13;;;17.38;;
4692;SDS011;11710;48.024;16.296;2022-12-18T17:41:48;32.70;;;16.02;;
4692;SDS011;11710;48.024;16.296;2022-12-18T17:44:16;36.10;;;17.10;;
4692;SDS011;11710;48.024;16.296;2022-12-18T17:46:44;34.70;;;17.42;;
4692;SDS011;11710;48.024;16.296;2022-12-18T17:49:11;30.75;;;16.45;;
4692;SDS011;11710;48.024;16.296;2022-12-18T17:51:38;39.53;;;19.00;;
4692;SDS011;11710;48.024;16.296;2022-12-18T17:54:08;33.75;;;16.10;;
4692;SDS011;11710;48.024;16.296;2022-12-18T17:56:36;34.10;;;17.20;;
4692;SDS011;11710;48.024;16.296;2022-12-18T17:59:04;18.42;;;9.15;;
4692;SDS011;11710;48.024;16.296;2022-12-18T18:01:32;29.40;;;13.70;;
4692;SDS011;11710;48.024;16.296;2022-12-18T18:03:59;30.35;;;15.73;;
4692;SDS011;11710;48.024;16.296;2022-12-18T18:06:26;32.13;;;15.32;;
4692;SDS011;11710;48.024;16.296;2022-12-18T18:08:53;28.40;;;14.82;;
4692;SDS011;11710;48.024;16.296;2022-12-18T18:11:23;39.00;;;16.52;;
4692;SDS011;11710;48.024;16.296;2022-12-18T18:14:10;32.97;;;16.23;;
4692;SDS011;11710;48.024;16.296;2022-12-18T18:16:39;33.10;;;16.20;;
4692;SDS011;11710;48.024;16.296;2022-12-18T18:19:09;31.83;;;16.77;;
4692;SDS011;11710;48.024;16.296;2022-12-18T18:21:37;33.35;;;17.27;;
4692;SDS011;11710;48.024;16.296;2022-12-18T18:24:06;36.75;;;16.92;;
4692;SDS011;11710;48.024;16.296;2022-12-18T18:26:35;31.27;;;16.10;;
4692;SDS011;11710;48.024;16.296;2022-12-18T18:29:04;39.13;;;17.48;;
4692;SDS011;11710;48.024;16.296;2022-12-18T18:31:33;37.45;;;18.77;;
4692;SDS011;11710;48.024;16.296;2022-12-18T18:34:01;41.72;;;19.45;;
4692;SDS011;11710;48.024;16.296;2022-12-18T18:36:28;33.03;;;14.88;;
4692;SDS011;11710;48.024;16.296;2022-12-18T18:38:57;38.20;;;18.70;;
4692;SDS011;11710;48.024;16.296;2022-12-18T18:41:26;37.08;;;17.60;;
4692;SDS011;11710;48.024;16.296;2022-12-18T18:43:56;39.03;;;17.92;;
4692;SDS011;11710;48.024;16.296;2022-12-18T18:46:24;40.13;;;19.20;;
4692;SDS011;11710;48.024;16.296;2022-12-18T18:48:51;38.20;;;17.60;;
4692;SDS011;11710;48.024;16.296;2022-12-18T18:51:20;33.35;;;17.67;;
4692;SDS011;11710;48.024;16.296;2022-12-18T18:53:49;38.40;;;19.10;;
4692;SDS011;11710;48.024;16.296;2022-12-18T18:56:18;38.75;;;18.58;;
4692;SDS011;11710;48.024;16.296;2022-12-18T18:58:46;31.95;;;16.05;;
4692;SDS011;11710;48.024;16.296;2022-12-18T19:01:15;42.72;;;18.08;;
4692;SDS011;11710;48.024;16.296;2022-12-18T19:03:45;35.15;;;17.92;;
4692;SDS011;11710;48.024;16.296;2022-12-18T19:06:15;39.17;;;18.52;;
4692;SDS011;11710;48.024;16.296;2022-12-18T19:08:43;39.53;;;18.73;;
4692;SDS011;11710;48.024;16.296;2022-12-18T19:11:11;39.17;;;19.05;;
4692;SDS011;11710;48.024;16.296;2022-12-18T19:13:57;34.10;;;18.17;;
4692;SDS011;11710;48.024;16.296;2022-12-18T19:16:27;39.33;;;18.48;;
4692;SDS011;11710;48.024;16.296;2022-12-18T19:18:54;40.88;;;18.73;;
4692;SDS011;11710;48.024;16.296;2022-12-18T19:21:22;37.47;;;17.10;;
4692;SDS011;11710;48.024;16.296;2022-12-18T19:23:50;24.00;;;12.30;;
4692;SDS011;11710;48.024;16.296;2022-12-18T19:26:17;34.88;;;19.63;;
4692;SDS011;11710;48.024;16.296;2022-12-18T19:28:45;38.10;;;18.23;;
4692;SDS011;11710;48.024;16.296;2022-12-18T19:31:13;36.95;;;18.02;;
4692;SDS011;11710;48.024;16.296;2022-12-18T19:33:44;43.88;;;20.23;;
4692;SDS011;11710;48.024;16.296;2022-12-18T19:36:13;41.40;;;18.52;;
4692;SDS011;11710;48.024;16.296;2022-12-18T19:38:44;46.10;;;19.48;;
4692;SDS011;11710;48.024;16.296;2022-12-18T19:41:13;42.63;;;18.55;;
4692;SDS011;11710;48.024;16.296;2022-12-18T19:43:42;38.63;;;18.40;;
4692;SDS011;11710;48.024;16.296;2022-12-18T19:46:11;41.67;;;18.05;;
4692;SDS011;11710;48.024;16.296;2022-12-18T19:48:40;39.58;;;19.20;;
4692;SDS011;11710;48.024;16.296;2022-12-18T19:51:10;40.30;;;20.30;;
4692;SDS011;11710;48.024;16.296;2022-12-18T19:53:40;47.88;;;20.77;;
4692;SDS011;11710;48.024;16.296;2022-12-18T19:56:07;39.65;;;18.33;;
4692;SDS011;11710;48.024;16.296;2022-12-18T19:58:36;28.48;;;15.65;;
4692;SDS011;11710;48.024;16.296;2022-12-18T20:01:04;37.10;;;18.25;;
4692;SDS011;11710;48.024;16.296;2022-12-18T20:03:31;39.00;;;18.27;;
4692;SDS011;11710;48.024;16.296;2022-12-18T20:06:06;39.92;;;19.80;;
4692;SDS011;11710;48.024;16.296;2022-12-18T20:08:36;37.08;;;18.88;;
